Decoded Metar for KW31 ( in ) (IATA:) | Meteo·Mobile Aviation Weather
aviador You're here:

KW31 Decoded Metar

in
Report Time2020-02-22 22:15:00
UTC Time2020-02-22 22:28:11
Flight Rules vfr VFR
Wind210° at 05 kt
Visibility9999 m
Phenomena:N/A
Clouds:N/A
Expected CloudBase > 6,400 ft AGL from Temp-Dew spread
CeilingNone
Temp10°C
Dew Point-6°C (32% RH)
AAT5.5°C
QNH1026 hPa
Raw Report
METAR KW31 222215Z AUTO 21005KT 10SM CLR 10/M06 A3029 RMK AO1 T01041065=

Extra information for KW31:More info

Social comments